Simmons Army Air Field
KFBG : now visible

Airfield :











YOU CAN JOIN US ON...

 
LOGIN :

Register | Disclaimer

   EN    FR    IT 

 









Legend :    VFR   Marginal VFR   IFR   Intensive IFR   Very Intensive IFR
Visi :
Ceiling :
>= 8 km
>= 3000ft
5 to 8 km
1000 to 3000 ft
1500m to 5 km
500 to 1000 ft
800 to 1500m
200 to 500 ft
< 800m
< 200 ft
Symbols :   Thunderstorms  Fog  Heavy snow  Heavy precipitations  Wind > 20 kt







- Airport Elevation : 244 ft


KFBG - Simmons Army Air Field

CURRENT METAR :
  • 171256Z AUTO 24008KT 10SM CLR 30/24 A3008 RMK AO2 SLP186 T02960240 $

EXPIRED METARs :
  • 171156Z AUTO 22005KT 10SM CLR 28/24 A3007 RMK AO2 SLP183 T02750243 10275 20257 51006 $
  • 171056Z AUTO 20004KT 10SM CLR 26/25 A3007 RMK AO2 SLP183 T02600253 $

TAF TAF KFBG
Valid from the 17 at 09:00 until the 18 at 15:00 UTC


170900Z 1709/1815 23006KT 9999 FEW200 QNH3002INS
BECMG 1718/1719 24009KT 9999 VCTS SCT055CB SCT150 QNH2995INS
TEMPO 1720/1724 25010G15KT 8000 -TSRA BKN050CB
BECMG 1802/1803 22006KT 9999 NSW FEW050 QNH2997INS TX35/1720Z TN24/1711Z
KZDC FIR / North America



MET'MAP, your aeronautical weather chart ! - Copyright ORBIFLY December 2007 - Disclaimer

ORBIFLY MET'MAP TEAM :

Programming & Development : Alexandra Zaïnal
Concept & Development : Baudouin d'Aumeries
Co-Development & Prog : Marc-Olivier Méhu
Technical & hardware support : Manuel Goepfert

Contact : metmap@orbifly.com




SOURCES & CREDITS :

   NOAA       Earth
Advisory